sensor_id;sensor_type;location;lat;lon;timestamp;P1;durP1;ratioP1;P2;durP2;ratioP2
2175;SDS011;1094;49.902;10.876;2023-04-15T00:01:24;26.33;;;24.43;;
2175;SDS011;1094;49.902;10.876;2023-04-15T00:03:52;27.07;;;25.00;;
2175;SDS011;1094;49.902;10.876;2023-04-15T00:06:19;26.23;;;24.43;;
2175;SDS011;1094;49.902;10.876;2023-04-15T00:08:45;27.80;;;25.60;;
2175;SDS011;1094;49.902;10.876;2023-04-15T00:11:11;26.70;;;24.70;;
2175;SDS011;1094;49.902;10.876;2023-04-15T00:13:37;27.90;;;25.80;;
2175;SDS011;1094;49.902;10.876;2023-04-15T00:16:04;28.37;;;26.37;;
2175;SDS011;1094;49.902;10.876;2023-04-15T00:18:30;29.10;;;26.30;;
2175;SDS011;1094;49.902;10.876;2023-04-15T00:20:56;29.63;;;27.23;;
2175;SDS011;1094;49.902;10.876;2023-04-15T00:23:22;28.23;;;26.20;;
2175;SDS011;1094;49.902;10.876;2023-04-15T00:25:49;28.60;;;26.47;;
2175;SDS011;1094;49.902;10.876;2023-04-15T00:28:15;29.13;;;26.87;;
2175;SDS011;1094;49.902;10.876;2023-04-15T00:30:42;27.67;;;25.77;;
2175;SDS011;1094;49.902;10.876;2023-04-15T00:33:08;28.60;;;26.23;;
2175;SDS011;1094;49.902;10.876;2023-04-15T00:35:34;28.23;;;25.73;;
2175;SDS011;1094;49.902;10.876;2023-04-15T00:38:01;27.40;;;25.20;;
2175;SDS011;1094;49.902;10.876;2023-04-15T00:40:27;28.27;;;26.20;;
2175;SDS011;1094;49.902;10.876;2023-04-15T00:42:53;28.10;;;26.00;;
2175;SDS011;1094;49.902;10.876;2023-04-15T00:45:19;28.27;;;26.20;;
2175;SDS011;1094;49.902;10.876;2023-04-15T00:47:45;27.53;;;25.30;;
2175;SDS011;1094;49.902;10.876;2023-04-15T00:50:11;28.03;;;25.93;;
2175;SDS011;1094;49.902;10.876;2023-04-15T00:52:38;29.30;;;27.03;;
2175;SDS011;1094;49.902;10.876;2023-04-15T00:55:04;28.43;;;26.03;;
2175;SDS011;1094;49.902;10.876;2023-04-15T00:57:30;27.73;;;25.53;;
2175;SDS011;1094;49.902;10.876;2023-04-15T00:59:57;27.73;;;25.63;;
2175;SDS011;1094;49.902;10.876;2023-04-15T01:02:23;29.00;;;26.60;;
2175;SDS011;1094;49.902;10.876;2023-04-15T01:04:49;28.73;;;26.60;;
2175;SDS011;1094;49.902;10.876;2023-04-15T01:07:15;27.40;;;25.20;;
2175;SDS011;1094;49.902;10.876;2023-04-15T01:09:41;29.13;;;26.73;;
2175;SDS011;1094;49.902;10.876;2023-04-15T01:12:08;28.47;;;26.30;;
2175;SDS011;1094;49.902;10.876;2023-04-15T01:14:35;28.50;;;26.43;;
2175;SDS011;1094;49.902;10.876;2023-04-15T01:17:01;28.50;;;26.30;;
2175;SDS011;1094;49.902;10.876;2023-04-15T01:19:27;27.43;;;25.53;;
2175;SDS011;1094;49.902;10.876;2023-04-15T01:21:53;29.40;;;27.20;;
2175;SDS011;1094;49.902;10.876;2023-04-15T01:24:19;29.23;;;26.90;;
2175;SDS011;1094;49.902;10.876;2023-04-15T01:26:45;28.70;;;26.20;;
2175;SDS011;1094;49.902;10.876;2023-04-15T01:29:11;29.00;;;26.80;;
2175;SDS011;1094;49.902;10.876;2023-04-15T01:31:37;29.63;;;27.43;;
2175;SDS011;1094;49.902;10.876;2023-04-15T01:34:03;29.10;;;26.87;;
2175;SDS011;1094;49.902;10.876;2023-04-15T01:36:30;28.27;;;26.13;;
2175;SDS011;1094;49.902;10.876;2023-04-15T01:38:55;27.67;;;25.73;;
2175;SDS011;1094;49.902;10.876;2023-04-15T01:41:25;27.20;;;25.40;;
2175;SDS011;1094;49.902;10.876;2023-04-15T01:43:51;27.10;;;25.00;;
2175;SDS011;1094;49.902;10.876;2023-04-15T01:46:17;27.73;;;25.73;;
2175;SDS011;1094;49.902;10.876;2023-04-15T01:48:43;27.07;;;25.17;;
2175;SDS011;1094;49.902;10.876;2023-04-15T01:51:09;27.43;;;25.43;;
2175;SDS011;1094;49.902;10.876;2023-04-15T01:53:36;27.17;;;25.23;;
2175;SDS011;1094;49.902;10.876;2023-04-15T01:56:01;29.20;;;26.70;;
2175;SDS011;1094;49.902;10.876;2023-04-15T01:58:28;27.53;;;25.60;;
2175;SDS011;1094;49.902;10.876;2023-04-15T02:00:54;28.80;;;26.43;;
2175;SDS011;1094;49.902;10.876;2023-04-15T02:03:20;27.80;;;25.37;;
2175;SDS011;1094;49.902;10.876;2023-04-15T02:05:46;27.77;;;25.77;;
2175;SDS011;1094;49.902;10.876;2023-04-15T02:08:13;28.03;;;26.07;;
2175;SDS011;1094;49.902;10.876;2023-04-15T02:10:39;29.50;;;26.77;;
2175;SDS011;1094;49.902;10.876;2023-04-15T02:13:05;28.90;;;25.90;;
2175;SDS011;1094;49.902;10.876;2023-04-15T02:15:31;28.60;;;26.57;;
2175;SDS011;1094;49.902;10.876;2023-04-15T02:17:57;27.40;;;25.60;;
2175;SDS011;1094;49.902;10.876;2023-04-15T02:20:24;27.47;;;25.47;;
2175;SDS011;1094;49.902;10.876;2023-04-15T02:22:50;28.43;;;26.33;;
2175;SDS011;1094;49.902;10.876;2023-04-15T02:25:16;27.67;;;25.57;;
2175;SDS011;1094;49.902;10.876;2023-04-15T02:27:42;27.93;;;25.70;;
2175;SDS011;1094;49.902;10.876;2023-04-15T02:30:09;27.93;;;25.93;;
2175;SDS011;1094;49.902;10.876;2023-04-15T02:32:35;27.37;;;25.43;;
2175;SDS011;1094;49.902;10.876;2023-04-15T02:35:04;27.90;;;25.50;;
2175;SDS011;1094;49.902;10.876;2023-04-15T02:37:31;27.17;;;25.17;;
2175;SDS011;1094;49.902;10.876;2023-04-15T02:40:00;27.80;;;25.70;;
2175;SDS011;1094;49.902;10.876;2023-04-15T02:42:26;27.63;;;25.30;;
2175;SDS011;1094;49.902;10.876;2023-04-15T02:44:54;26.10;;;24.30;;
2175;SDS011;1094;49.902;10.876;2023-04-15T02:47:20;28.47;;;26.30;;
2175;SDS011;1094;49.902;10.876;2023-04-15T02:49:47;26.80;;;24.70;;
2175;SDS011;1094;49.902;10.876;2023-04-15T02:52:13;27.23;;;25.33;;
2175;SDS011;1094;49.902;10.876;2023-04-15T02:54:39;27.03;;;25.20;;
2175;SDS011;1094;49.902;10.876;2023-04-15T02:57:05;27.80;;;25.80;;
2175;SDS011;1094;49.902;10.876;2023-04-15T02:59:31;27.93;;;25.63;;
2175;SDS011;1094;49.902;10.876;2023-04-15T03:01:57;27.30;;;25.47;;
2175;SDS011;1094;49.902;10.876;2023-04-15T03:04:25;27.57;;;25.27;;
2175;SDS011;1094;49.902;10.876;2023-04-15T03:06:53;27.20;;;25.00;;
2175;SDS011;1094;49.902;10.876;2023-04-15T03:09:20;27.97;;;25.93;;
2175;SDS011;1094;49.902;10.876;2023-04-15T03:11:46;28.37;;;26.23;;
2175;SDS011;1094;49.902;10.876;2023-04-15T03:14:12;28.37;;;26.17;;
2175;SDS011;1094;49.902;10.876;2023-04-15T03:16:38;28.73;;;26.73;;
2175;SDS011;1094;49.902;10.876;2023-04-15T03:19:04;27.47;;;25.53;;
2175;SDS011;1094;49.902;10.876;2023-04-15T03:21:30;27.93;;;26.03;;
2175;SDS011;1094;49.902;10.876;2023-04-15T03:23:56;26.57;;;24.60;;
2175;SDS011;1094;49.902;10.876;2023-04-15T03:26:25;27.63;;;25.63;;
2175;SDS011;1094;49.902;10.876;2023-04-15T03:28:52;28.30;;;26.20;;
2175;SDS011;1094;49.902;10.876;2023-04-15T03:31:18;27.20;;;25.20;;
2175;SDS011;1094;49.902;10.876;2023-04-15T03:33:44;27.23;;;25.27;;
2175;SDS011;1094;49.902;10.876;2023-04-15T03:36:10;28.57;;;26.40;;
2175;SDS011;1094;49.902;10.876;2023-04-15T03:38:36;27.83;;;25.80;;
2175;SDS011;1094;49.902;10.876;2023-04-15T03:41:02;27.00;;;25.00;;
2175;SDS011;1094;49.902;10.876;2023-04-15T03:43:28;28.70;;;26.50;;
2175;SDS011;1094;49.902;10.876;2023-04-15T03:45:54;28.50;;;26.30;;
2175;SDS011;1094;49.902;10.876;2023-04-15T03:48:20;28.40;;;25.90;;
2175;SDS011;1094;49.902;10.876;2023-04-15T03:50:46;28.07;;;25.50;;
2175;SDS011;1094;49.902;10.876;2023-04-15T03:53:12;27.67;;;25.63;;
2175;SDS011;1094;49.902;10.876;2023-04-15T03:55:38;28.30;;;26.50;;
2175;SDS011;1094;49.902;10.876;2023-04-15T03:58:04;27.90;;;25.50;;
2175;SDS011;1094;49.902;10.876;2023-04-15T04:00:30;28.20;;;26.20;;
2175;SDS011;1094;49.902;10.876;2023-04-15T04:02:56;28.90;;;26.67;;
2175;SDS011;1094;49.902;10.876;2023-04-15T04:05:22;28.77;;;26.37;;
2175;SDS011;1094;49.902;10.876;2023-04-15T04:07:48;28.13;;;26.23;;
2175;SDS011;1094;49.902;10.876;2023-04-15T04:10:14;28.13;;;26.00;;
2175;SDS011;1094;49.902;10.876;2023-04-15T04:12:40;27.13;;;25.00;;
2175;SDS011;1094;49.902;10.876;2023-04-15T04:15:06;28.30;;;26.10;;
2175;SDS011;1094;49.902;10.876;2023-04-15T04:17:33;28.13;;;26.10;;
2175;SDS011;1094;49.902;10.876;2023-04-15T04:19:59;27.93;;;26.03;;
2175;SDS011;1094;49.902;10.876;2023-04-15T04:22:25;27.70;;;25.80;;
2175;SDS011;1094;49.902;10.876;2023-04-15T04:24:51;27.90;;;25.90;;
2175;SDS011;1094;49.902;10.876;2023-04-15T04:27:17;26.27;;;24.37;;
2175;SDS011;1094;49.902;10.876;2023-04-15T04:29:43;27.67;;;25.47;;
2175;SDS011;1094;49.902;10.876;2023-04-15T04:32:11;29.70;;;27.23;;
2175;SDS011;1094;49.902;10.876;2023-04-15T04:34:37;27.03;;;25.13;;
2175;SDS011;1094;49.902;10.876;2023-04-15T04:37:03;27.00;;;24.83;;
2175;SDS011;1094;49.902;10.876;2023-04-15T04:39:29;26.60;;;24.60;;
2175;SDS011;1094;49.902;10.876;2023-04-15T04:41:56;28.57;;;26.30;;
2175;SDS011;1094;49.902;10.876;2023-04-15T04:44:22;28.03;;;25.87;;
2175;SDS011;1094;49.902;10.876;2023-04-15T04:46:48;27.53;;;25.43;;
2175;SDS011;1094;49.902;10.876;2023-04-15T04:49:14;28.30;;;26.00;;
2175;SDS011;1094;49.902;10.876;2023-04-15T04:51:40;27.43;;;25.43;;
2175;SDS011;1094;49.902;10.876;2023-04-15T04:54:06;27.30;;;25.40;;
2175;SDS011;1094;49.902;10.876;2023-04-15T04:56:32;27.80;;;25.80;;
2175;SDS011;1094;49.902;10.876;2023-04-15T04:58:58;27.27;;;25.37;;
2175;SDS011;1094;49.902;10.876;2023-04-15T05:01:24;26.90;;;24.87;;
2175;SDS011;1094;49.902;10.876;2023-04-15T05:04:11;27.70;;;25.70;;
2175;SDS011;1094;49.902;10.876;2023-04-15T05:06:37;26.90;;;24.90;;
2175;SDS011;1094;49.902;10.876;2023-04-15T05:09:03;26.27;;;24.50;;
2175;SDS011;1094;49.902;10.876;2023-04-15T05:11:29;27.37;;;25.50;;
2175;SDS011;1094;49.902;10.876;2023-04-15T05:13:55;27.03;;;25.20;;
2175;SDS011;1094;49.902;10.876;2023-04-15T05:16:22;27.37;;;25.50;;
2175;SDS011;1094;49.902;10.876;2023-04-15T05:18:49;26.50;;;24.60;;
2175;SDS011;1094;49.902;10.876;2023-04-15T05:21:16;26.80;;;24.90;;
2175;SDS011;1094;49.902;10.876;2023-04-15T05:23:42;27.13;;;25.17;;
2175;SDS011;1094;49.902;10.876;2023-04-15T05:26:07;27.87;;;25.90;;
2175;SDS011;1094;49.902;10.876;2023-04-15T05:28:33;26.10;;;24.30;;
2175;SDS011;1094;49.902;10.876;2023-04-15T05:30:59;27.70;;;25.70;;
2175;SDS011;1094;49.902;10.876;2023-04-15T05:33:25;26.00;;;24.30;;
2175;SDS011;1094;49.902;10.876;2023-04-15T05:35:51;26.63;;;24.63;;
2175;SDS011;1094;49.902;10.876;2023-04-15T05:38:17;26.17;;;24.37;;
2175;SDS011;1094;49.902;10.876;2023-04-15T05:40:43;26.43;;;24.70;;
2175;SDS011;1094;49.902;10.876;2023-04-15T05:43:09;27.43;;;25.23;;
2175;SDS011;1094;49.902;10.876;2023-04-15T05:45:35;26.33;;;24.53;;
2175;SDS011;1094;49.902;10.876;2023-04-15T05:48:01;27.00;;;25.10;;
2175;SDS011;1094;49.902;10.876;2023-04-15T05:50:27;25.30;;;23.73;;
2175;SDS011;1094;49.902;10.876;2023-04-15T05:52:53;26.83;;;24.93;;
2175;SDS011;1094;49.902;10.876;2023-04-15T05:55:19;27.13;;;24.83;;
2175;SDS011;1094;49.902;10.876;2023-04-15T05:57:46;27.90;;;25.63;;
2175;SDS011;1094;49.902;10.876;2023-04-15T06:00:13;26.90;;;25.20;;
2175;SDS011;1094;49.902;10.876;2023-04-15T06:02:39;26.50;;;24.50;;
2175;SDS011;1094;49.902;10.876;2023-04-15T06:05:05;26.67;;;24.83;;
2175;SDS011;1094;49.902;10.876;2023-04-15T06:07:33;27.90;;;25.90;;
2175;SDS011;1094;49.902;10.876;2023-04-15T06:10:00;27.23;;;25.23;;
2175;SDS011;1094;49.902;10.876;2023-04-15T06:12:26;26.87;;;24.87;;
2175;SDS011;1094;49.902;10.876;2023-04-15T06:14:52;26.17;;;24.43;;
2175;SDS011;1094;49.902;10.876;2023-04-15T06:17:18;27.20;;;25.40;;
2175;SDS011;1094;49.902;10.876;2023-04-15T06:19:44;27.63;;;24.97;;
2175;SDS011;1094;49.902;10.876;2023-04-15T06:22:10;27.50;;;25.60;;
2175;SDS011;1094;49.902;10.876;2023-04-15T06:24:36;27.27;;;25.30;;
2175;SDS011;1094;49.902;10.876;2023-04-15T06:27:02;27.70;;;25.60;;
2175;SDS011;1094;49.902;10.876;2023-04-15T06:29:28;28.60;;;26.00;;
2175;SDS011;1094;49.902;10.876;2023-04-15T06:31:54;27.17;;;25.37;;
2175;SDS011;1094;49.902;10.876;2023-04-15T06:34:20;25.77;;;24.27;;
2175;SDS011;1094;49.902;10.876;2023-04-15T06:36:46;27.50;;;25.67;;
2175;SDS011;1094;49.902;10.876;2023-04-15T06:39:12;26.07;;;24.27;;
2175;SDS011;1094;49.902;10.876;2023-04-15T06:41:38;27.37;;;25.53;;
2175;SDS011;1094;49.902;10.876;2023-04-15T06:44:04;27.53;;;25.50;;
2175;SDS011;1094;49.902;10.876;2023-04-15T06:46:30;27.20;;;25.20;;
2175;SDS011;1094;49.902;10.876;2023-04-15T06:48:56;28.70;;;26.17;;
2175;SDS011;1094;49.902;10.876;2023-04-15T06:51:22;26.63;;;24.83;;
2175;SDS011;1094;49.902;10.876;2023-04-15T06:53:48;29.47;;;27.37;;
2175;SDS011;1094;49.902;10.876;2023-04-15T06:56:14;28.33;;;26.33;;
2175;SDS011;1094;49.902;10.876;2023-04-15T06:58:40;26.97;;;25.00;;
2175;SDS011;1094;49.902;10.876;2023-04-15T07:01:06;28.13;;;26.23;;
2175;SDS011;1094;49.902;10.876;2023-04-15T07:03:32;27.73;;;25.63;;
2175;SDS011;1094;49.902;10.876;2023-04-15T07:05:59;28.30;;;26.40;;
2175;SDS011;1094;49.902;10.876;2023-04-15T07:08:25;27.43;;;25.53;;
2175;SDS011;1094;49.902;10.876;2023-04-15T07:10:51;27.10;;;25.30;;
2175;SDS011;1094;49.902;10.876;2023-04-15T07:13:18;28.60;;;26.30;;
2175;SDS011;1094;49.902;10.876;2023-04-15T07:15:44;28.07;;;25.90;;
2175;SDS011;1094;49.902;10.876;2023-04-15T07:18:09;29.53;;;27.00;;
2175;SDS011;1094;49.902;10.876;2023-04-15T07:20:35;27.77;;;25.93;;
2175;SDS011;1094;49.902;10.876;2023-04-15T07:23:01;27.90;;;25.60;;
2175;SDS011;1094;49.902;10.876;2023-04-15T07:25:28;28.47;;;26.37;;
2175;SDS011;1094;49.902;10.876;2023-04-15T07:27:54;28.57;;;26.57;;
2175;SDS011;1094;49.902;10.876;2023-04-15T07:30:20;26.63;;;24.83;;
2175;SDS011;1094;49.902;10.876;2023-04-15T07:32:46;29.00;;;26.70;;
2175;SDS011;1094;49.902;10.876;2023-04-15T07:35:12;28.30;;;26.00;;
2175;SDS011;1094;49.902;10.876;2023-04-15T07:37:38;27.73;;;25.83;;
2175;SDS011;1094;49.902;10.876;2023-04-15T07:40:05;28.47;;;25.87;;
2175;SDS011;1094;49.902;10.876;2023-04-15T07:42:33;27.43;;;25.53;;
2175;SDS011;1094;49.902;10.876;2023-04-15T07:44:59;28.03;;;26.13;;
2175;SDS011;1094;49.902;10.876;2023-04-15T07:47:25;27.63;;;25.73;;
2175;SDS011;1094;49.902;10.876;2023-04-15T07:49:51;27.93;;;25.83;;
2175;SDS011;1094;49.902;10.876;2023-04-15T07:52:17;27.90;;;25.90;;
2175;SDS011;1094;49.902;10.876;2023-04-15T07:54:43;28.20;;;26.30;;
2175;SDS011;1094;49.902;10.876;2023-04-15T07:57:09;27.50;;;25.50;;
2175;SDS011;1094;49.902;10.876;2023-04-15T07:59:35;27.23;;;25.23;;
2175;SDS011;1094;49.902;10.876;2023-04-15T08:02:01;26.80;;;25.00;;
2175;SDS011;1094;49.902;10.876;2023-04-15T08:04:28;27.97;;;26.13;;
2175;SDS011;1094;49.902;10.876;2023-04-15T08:06:54;28.27;;;26.20;;
2175;SDS011;1094;49.902;10.876;2023-04-15T08:09:19;28.67;;;26.57;;
2175;SDS011;1094;49.902;10.876;2023-04-15T08:11:47;28.23;;;26.30;;
2175;SDS011;1094;49.902;10.876;2023-04-15T08:14:13;29.77;;;27.37;;
2175;SDS011;1094;49.902;10.876;2023-04-15T08:16:39;28.47;;;26.40;;
2175;SDS011;1094;49.902;10.876;2023-04-15T08:19:05;28.00;;;26.00;;
2175;SDS011;1094;49.902;10.876;2023-04-15T08:21:31;29.53;;;27.07;;
2175;SDS011;1094;49.902;10.876;2023-04-15T08:23:57;28.93;;;26.83;;
2175;SDS011;1094;49.902;10.876;2023-04-15T08:26:24;28.30;;;26.10;;
2175;SDS011;1094;49.902;10.876;2023-04-15T08:28:50;27.37;;;25.50;;
2175;SDS011;1094;49.902;10.876;2023-04-15T08:31:16;28.83;;;26.60;;
2175;SDS011;1094;49.902;10.876;2023-04-15T08:33:42;26.93;;;24.93;;
2175;SDS011;1094;49.902;10.876;2023-04-15T08:36:09;27.13;;;25.30;;
2175;SDS011;1094;49.902;10.876;2023-04-15T08:38:35;28.03;;;25.93;;
2175;SDS011;1094;49.902;10.876;2023-04-15T08:41:06;30.00;;;27.77;;
2175;SDS011;1094;49.902;10.876;2023-04-15T08:43:33;27.53;;;25.43;;
2175;SDS011;1094;49.902;10.876;2023-04-15T08:45:59;27.53;;;25.63;;
2175;SDS011;1094;49.902;10.876;2023-04-15T08:48:29;28.70;;;26.47;;
2175;SDS011;1094;49.902;10.876;2023-04-15T08:50:56;29.70;;;27.20;;
2175;SDS011;1094;49.902;10.876;2023-04-15T08:53:23;29.00;;;27.00;;
2175;SDS011;1094;49.902;10.876;2023-04-15T08:55:50;28.13;;;26.10;;
2175;SDS011;1094;49.902;10.876;2023-04-15T08:58:16;28.23;;;26.23;;
2175;SDS011;1094;49.902;10.876;2023-04-15T09:00:43;28.40;;;26.40;;
2175;SDS011;1094;49.902;10.876;2023-04-15T09:03:10;26.83;;;24.83;;
2175;SDS011;1094;49.902;10.876;2023-04-15T09:05:36;28.77;;;26.57;;
2175;SDS011;1094;49.902;10.876;2023-04-15T09:08:02;27.60;;;25.57;;
2175;SDS011;1094;49.902;10.876;2023-04-15T09:10:29;27.90;;;25.70;;
2175;SDS011;1094;49.902;10.876;2023-04-15T09:12:55;28.20;;;26.10;;
2175;SDS011;1094;49.902;10.876;2023-04-15T09:15:23;27.93;;;25.70;;
2175;SDS011;1094;49.902;10.876;2023-04-15T09:17:51;28.27;;;26.27;;
2175;SDS011;1094;49.902;10.876;2023-04-15T09:20:17;28.73;;;26.30;;
2175;SDS011;1094;49.902;10.876;2023-04-15T09:22:44;29.17;;;26.87;;
2175;SDS011;1094;49.902;10.876;2023-04-15T09:27:49;27.93;;;25.93;;
2175;SDS011;1094;49.902;10.876;2023-04-15T09:30:15;28.30;;;25.87;;
2175;SDS011;1094;49.902;10.876;2023-04-15T09:32:54;27.93;;;26.07;;
2175;SDS011;1094;49.902;10.876;2023-04-15T09:35:20;28.20;;;26.10;;
2175;SDS011;1094;49.902;10.876;2023-04-15T09:37:47;26.17;;;24.37;;
2175;SDS011;1094;49.902;10.876;2023-04-15T09:40:13;26.40;;;24.70;;
2175;SDS011;1094;49.902;10.876;2023-04-15T09:42:52;27.17;;;25.17;;
2175;SDS011;1094;49.902;10.876;2023-04-15T09:45:20;27.67;;;25.63;;
2175;SDS011;1094;49.902;10.876;2023-04-15T09:47:46;26.77;;;24.87;;
2175;SDS011;1094;49.902;10.876;2023-04-15T09:50:12;27.53;;;25.70;;
2175;SDS011;1094;49.902;10.876;2023-04-15T09:52:42;25.60;;;23.80;;
2175;SDS011;1094;49.902;10.876;2023-04-15T09:55:09;26.40;;;24.60;;
2175;SDS011;1094;49.902;10.876;2023-04-15T09:57:35;26.80;;;25.00;;
2175;SDS011;1094;49.902;10.876;2023-04-15T10:00:04;27.60;;;25.60;;
2175;SDS011;1094;49.902;10.876;2023-04-15T10:02:32;27.07;;;25.27;;
2175;SDS011;1094;49.902;10.876;2023-04-15T10:04:59;26.90;;;25.10;;
2175;SDS011;1094;49.902;10.876;2023-04-15T10:07:26;27.00;;;24.83;;
2175;SDS011;1094;49.902;10.876;2023-04-15T10:09:51;25.90;;;24.20;;
2175;SDS011;1094;49.902;10.876;2023-04-15T10:12:18;25.87;;;24.17;;
2175;SDS011;1094;49.902;10.876;2023-04-15T10:14:47;25.40;;;23.70;;
2175;SDS011;1094;49.902;10.876;2023-04-15T10:17:13;24.07;;;22.43;;
2175;SDS011;1094;49.902;10.876;2023-04-15T10:19:42;26.10;;;24.30;;
2175;SDS011;1094;49.902;10.876;2023-04-15T10:22:08;26.13;;;24.43;;
2175;SDS011;1094;49.902;10.876;2023-04-15T10:24:34;25.27;;;23.67;;
2175;SDS011;1094;49.902;10.876;2023-04-15T10:27:02;25.13;;;23.30;;
2175;SDS011;1094;49.902;10.876;2023-04-15T10:29:28;26.27;;;24.27;;
2175;SDS011;1094;49.902;10.876;2023-04-15T10:31:54;24.40;;;22.90;;
2175;SDS011;1094;49.902;10.876;2023-04-15T10:34:21;24.20;;;22.60;;
2175;SDS011;1094;49.902;10.876;2023-04-15T10:36:48;23.23;;;21.83;;
2175;SDS011;1094;49.902;10.876;2023-04-15T10:44:32;23.00;;;21.60;;
2175;SDS011;1094;49.902;10.876;2023-04-15T10:46:58;23.03;;;21.73;;
2175;SDS011;1094;49.902;10.876;2023-04-15T10:49:24;23.37;;;22.07;;
2175;SDS011;1094;49.902;10.876;2023-04-15T10:51:51;22.00;;;20.70;;
2175;SDS011;1094;49.902;10.876;2023-04-15T10:57:08;21.80;;;20.60;;
2175;SDS011;1094;49.902;10.876;2023-04-15T10:59:35;21.07;;;19.97;;
2175;SDS011;1094;49.902;10.876;2023-04-15T11:02:05;21.90;;;20.40;;
2175;SDS011;1094;49.902;10.876;2023-04-15T11:04:50;21.20;;;20.00;;
2175;SDS011;1094;49.902;10.876;2023-04-15T11:10:00;21.10;;;19.90;;
2175;SDS011;1094;49.902;10.876;2023-04-15T11:12:33;20.40;;;19.30;;
2175;SDS011;1094;49.902;10.876;2023-04-15T11:15:00;20.77;;;19.67;;
2175;SDS011;1094;49.902;10.876;2023-04-15T11:17:46;21.30;;;20.20;;
2175;SDS011;1094;49.902;10.876;2023-04-15T11:20:14;21.90;;;20.60;;
2175;SDS011;1094;49.902;10.876;2023-04-15T11:22:47;21.60;;;20.50;;
2175;SDS011;1094;49.902;10.876;2023-04-15T11:27:48;21.50;;;20.30;;
2175;SDS011;1094;49.902;10.876;2023-04-15T11:30:33;21.27;;;20.07;;
2175;SDS011;1094;49.902;10.876;2023-04-15T11:33:00;20.97;;;19.87;;
2175;SDS011;1094;49.902;10.876;2023-04-15T11:35:27;21.20;;;20.10;;
2175;SDS011;1094;49.902;10.876;2023-04-15T11:37:53;21.57;;;20.47;;
2175;SDS011;1094;49.902;10.876;2023-04-15T11:40:26;21.00;;;19.90;;
2175;SDS011;1094;49.902;10.876;2023-04-15T11:45:37;21.47;;;20.30;;
2175;SDS011;1094;49.902;10.876;2023-04-15T11:48:12;21.17;;;20.00;;
2175;SDS011;1094;49.902;10.876;2023-04-15T11:50:38;20.70;;;19.60;;
2175;SDS011;1094;49.902;10.876;2023-04-15T11:53:08;21.27;;;20.00;;
2175;SDS011;1094;49.902;10.876;2023-04-15T11:55:44;21.80;;;20.50;;
2175;SDS011;1094;49.902;10.876;2023-04-15T11:58:12;21.53;;;20.33;;
2175;SDS011;1094;49.902;10.876;2023-04-15T12:00:39;21.17;;;19.97;;
2175;SDS011;1094;49.902;10.876;2023-04-15T12:03:22;20.80;;;19.70;;
2175;SDS011;1094;49.902;10.876;2023-04-15T12:06:07;20.67;;;19.57;;
2175;SDS011;1094;49.902;10.876;2023-04-15T12:13:52;20.60;;;19.50;;
2175;SDS011;1094;49.902;10.876;2023-04-15T12:16:19;20.33;;;19.23;;
2175;SDS011;1094;49.902;10.876;2023-04-15T12:18:45;20.50;;;19.40;;
2175;SDS011;1094;49.902;10.876;2023-04-15T12:21:12;19.93;;;18.73;;
2175;SDS011;1094;49.902;10.876;2023-04-15T12:23:50;20.20;;;19.10;;
2175;SDS011;1094;49.902;10.876;2023-04-15T12:26:17;19.40;;;18.40;;
2175;SDS011;1094;49.902;10.876;2023-04-15T12:28:43;19.93;;;18.90;;
2175;SDS011;1094;49.902;10.876;2023-04-15T12:31:10;19.60;;;18.60;;
2175;SDS011;1094;49.902;10.876;2023-04-15T12:33:37;19.47;;;18.47;;
2175;SDS011;1094;49.902;10.876;2023-04-15T12:36:03;19.27;;;18.27;;
2175;SDS011;1094;49.902;10.876;2023-04-15T12:38:29;19.23;;;18.27;;
2175;SDS011;1094;49.902;10.876;2023-04-15T12:40:56;19.37;;;18.37;;
2175;SDS011;1094;49.902;10.876;2023-04-15T12:43:22;19.37;;;18.37;;
2175;SDS011;1094;49.902;10.876;2023-04-15T12:45:48;18.90;;;17.90;;
2175;SDS011;1094;49.902;10.876;2023-04-15T12:48:15;19.60;;;18.60;;
2175;SDS011;1094;49.902;10.876;2023-04-15T12:50:40;18.90;;;17.87;;
2175;SDS011;1094;49.902;10.876;2023-04-15T12:53:06;19.20;;;18.20;;
2175;SDS011;1094;49.902;10.876;2023-04-15T12:55:33;19.90;;;18.80;;
2175;SDS011;1094;49.902;10.876;2023-04-15T12:57:59;19.60;;;18.60;;
2175;SDS011;1094;49.902;10.876;2023-04-15T13:00:25;19.93;;;18.93;;
2175;SDS011;1094;49.902;10.876;2023-04-15T13:02:51;19.70;;;18.70;;
2175;SDS011;1094;49.902;10.876;2023-04-15T13:05:16;19.63;;;18.60;;
2175;SDS011;1094;49.902;10.876;2023-04-15T13:07:42;19.47;;;18.40;;
2175;SDS011;1094;49.902;10.876;2023-04-15T13:10:08;19.83;;;18.83;;
2175;SDS011;1094;49.902;10.876;2023-04-15T13:12:35;20.23;;;19.23;;
2175;SDS011;1094;49.902;10.876;2023-04-15T13:15:01;20.13;;;19.03;;
2175;SDS011;1094;49.902;10.876;2023-04-15T13:17:28;20.30;;;19.20;;
2175;SDS011;1094;49.902;10.876;2023-04-15T13:19:54;19.80;;;18.80;;
2175;SDS011;1094;49.902;10.876;2023-04-15T13:22:20;20.30;;;19.30;;
2175;SDS011;1094;49.902;10.876;2023-04-15T13:24:46;20.27;;;19.27;;
2175;SDS011;1094;49.902;10.876;2023-04-15T13:27:13;19.93;;;18.93;;
2175;SDS011;1094;49.902;10.876;2023-04-15T13:29:39;20.57;;;19.40;;
2175;SDS011;1094;49.902;10.876;2023-04-15T13:32:05;20.63;;;19.50;;
2175;SDS011;1094;49.902;10.876;2023-04-15T13:34:31;20.40;;;19.30;;
2175;SDS011;1094;49.902;10.876;2023-04-15T13:36:57;20.10;;;19.10;;
2175;SDS011;1094;49.902;10.876;2023-04-15T13:39:23;20.27;;;19.27;;
2175;SDS011;1094;49.902;10.876;2023-04-15T13:41:49;20.40;;;19.30;;
2175;SDS011;1094;49.902;10.876;2023-04-15T13:44:15;19.47;;;18.47;;
2175;SDS011;1094;49.902;10.876;2023-04-15T13:46:41;19.40;;;18.40;;
2175;SDS011;1094;49.902;10.876;2023-04-15T13:49:07;20.27;;;19.27;;
2175;SDS011;1094;49.902;10.876;2023-04-15T13:51:33;20.30;;;19.30;;
2175;SDS011;1094;49.902;10.876;2023-04-15T13:54:00;20.17;;;19.17;;
2175;SDS011;1094;49.902;10.876;2023-04-15T13:56:26;19.90;;;18.90;;
2175;SDS011;1094;49.902;10.876;2023-04-15T13:58:53;21.50;;;20.37;;
2175;SDS011;1094;49.902;10.876;2023-04-15T14:01:22;20.27;;;19.27;;
2175;SDS011;1094;49.902;10.876;2023-04-15T14:03:48;21.03;;;20.03;;
2175;SDS011;1094;49.902;10.876;2023-04-15T14:06:15;20.30;;;19.30;;
2175;SDS011;1094;49.902;10.876;2023-04-15T14:08:40;20.20;;;19.20;;
2175;SDS011;1094;49.902;10.876;2023-04-15T14:11:07;20.87;;;19.87;;
2175;SDS011;1094;49.902;10.876;2023-04-15T14:13:33;20.53;;;19.53;;
2175;SDS011;1094;49.902;10.876;2023-04-15T14:15:58;20.63;;;19.53;;
2175;SDS011;1094;49.902;10.876;2023-04-15T14:18:25;21.33;;;20.17;;
2175;SDS011;1094;49.902;10.876;2023-04-15T14:20:51;20.00;;;18.97;;
2175;SDS011;1094;49.902;10.876;2023-04-15T14:23:17;21.13;;;20.03;;
2175;SDS011;1094;49.902;10.876;2023-04-15T14:25:43;19.93;;;18.93;;
2175;SDS011;1094;49.902;10.876;2023-04-15T14:28:08;20.13;;;19.00;;
2175;SDS011;1094;49.902;10.876;2023-04-15T14:30:34;20.27;;;19.27;;
2175;SDS011;1094;49.902;10.876;2023-04-15T14:33:00;20.47;;;19.37;;
2175;SDS011;1094;49.902;10.876;2023-04-15T14:35:27;19.83;;;18.83;;
2175;SDS011;1094;49.902;10.876;2023-04-15T14:37:53;20.63;;;19.63;;
2175;SDS011;1094;49.902;10.876;2023-04-15T14:40:19;20.13;;;19.03;;
2175;SDS011;1094;49.902;10.876;2023-04-15T14:42:45;20.80;;;19.70;;
2175;SDS011;1094;49.902;10.876;2023-04-15T14:45:11;20.03;;;19.03;;
2175;SDS011;1094;49.902;10.876;2023-04-15T14:47:37;20.40;;;19.40;;
2175;SDS011;1094;49.902;10.876;2023-04-15T14:50:03;19.70;;;18.70;;
2175;SDS011;1094;49.902;10.876;2023-04-15T14:52:30;20.53;;;19.43;;
2175;SDS011;1094;49.902;10.876;2023-04-15T14:55:02;20.40;;;19.40;;